sensor_id;sensor_type;location;lat;lon;timestamp;temperature;humidity
13148;DHT22;6639;50.956;4.242;2023-12-07T00:01:40;8.70;99.90
13148;DHT22;6639;50.956;4.242;2023-12-07T00:04:09;8.60;99.90
13148;DHT22;6639;50.956;4.242;2023-12-07T00:06:36;8.60;99.90
13148;DHT22;6639;50.956;4.242;2023-12-07T00:09:02;8.10;99.90
13148;DHT22;6639;50.956;4.242;2023-12-07T00:11:29;7.70;99.90
13148;DHT22;6639;50.956;4.242;2023-12-07T00:13:56;7.50;99.90
13148;DHT22;6639;50.956;4.242;2023-12-07T00:16:23;7.80;99.90
13148;DHT22;6639;50.956;4.242;2023-12-07T00:18:50;8.20;99.90
13148;DHT22;6639;50.956;4.242;2023-12-07T00:21:18;8.60;99.90
13148;DHT22;6639;50.956;4.242;2023-12-07T00:23:45;7.80;99.90
13148;DHT22;6639;50.956;4.242;2023-12-07T00:26:12;7.90;99.90
13148;DHT22;6639;50.956;4.242;2023-12-07T00:28:39;7.90;99.90
13148;DHT22;6639;50.956;4.242;2023-12-07T00:31:06;8.50;99.90
13148;DHT22;6639;50.956;4.242;2023-12-07T00:33:33;8.80;99.90
13148;DHT22;6639;50.956;4.242;2023-12-07T00:36:00;8.70;99.90
13148;DHT22;6639;50.956;4.242;2023-12-07T00:38:29;8.70;99.90
13148;DHT22;6639;50.956;4.242;2023-12-07T00:40:57;8.60;99.90
13148;DHT22;6639;50.956;4.242;2023-12-07T00:43:24;8.10;99.90
13148;DHT22;6639;50.956;4.242;2023-12-07T00:45:51;8.10;99.90
13148;DHT22;6639;50.956;4.242;2023-12-07T00:48:18;8.10;99.90
13148;DHT22;6639;50.956;4.242;2023-12-07T00:50:45;8.10;99.90
13148;DHT22;6639;50.956;4.242;2023-12-07T00:53:13;7.20;99.90
13148;DHT22;6639;50.956;4.242;2023-12-07T00:55:41;7.80;99.90
13148;DHT22;6639;50.956;4.242;2023-12-07T00:58:08;8.10;99.90
13148;DHT22;6639;50.956;4.242;2023-12-07T01:00:35;8.20;99.90
13148;DHT22;6639;50.956;4.242;2023-12-07T01:03:02;8.70;99.90
13148;DHT22;6639;50.956;4.242;2023-12-07T01:05:29;8.90;99.90
13148;DHT22;6639;50.956;4.242;2023-12-07T01:07:56;8.70;99.90
13148;DHT22;6639;50.956;4.242;2023-12-07T01:10:23;8.90;99.90
13148;DHT22;6639;50.956;4.242;2023-12-07T01:12:51;8.90;99.90
13148;DHT22;6639;50.956;4.242;2023-12-07T01:15:18;8.80;99.90
13148;DHT22;6639;50.956;4.242;2023-12-07T01:17:45;8.90;99.90
13148;DHT22;6639;50.956;4.242;2023-12-07T01:20:12;8.70;99.90
13148;DHT22;6639;50.956;4.242;2023-12-07T01:22:40;9.00;99.90
13148;DHT22;6639;50.956;4.242;2023-12-07T01:25:07;9.30;99.90
13148;DHT22;6639;50.956;4.242;2023-12-07T01:27:34;9.50;99.90
13148;DHT22;6639;50.956;4.242;2023-12-07T01:30:04;9.80;99.90
13148;DHT22;6639;50.956;4.242;2023-12-07T01:32:31;10.10;99.90
13148;DHT22;6639;50.956;4.242;2023-12-07T01:34:58;10.20;99.90
13148;DHT22;6639;50.956;4.242;2023-12-07T01:37:25;10.10;99.90
13148;DHT22;6639;50.956;4.242;2023-12-07T01:39:53;9.50;99.90
13148;DHT22;6639;50.956;4.242;2023-12-07T01:42:20;9.40;99.90
13148;DHT22;6639;50.956;4.242;2023-12-07T01:44:48;8.70;99.90
13148;DHT22;6639;50.956;4.242;2023-12-07T01:47:16;8.90;99.90
13148;DHT22;6639;50.956;4.242;2023-12-07T01:49:43;9.30;99.90
13148;DHT22;6639;50.956;4.242;2023-12-07T01:52:10;8.90;99.90
13148;DHT22;6639;50.956;4.242;2023-12-07T01:54:38;9.10;99.90
13148;DHT22;6639;50.956;4.242;2023-12-07T01:57:05;9.20;99.90
13148;DHT22;6639;50.956;4.242;2023-12-07T01:59:33;9.70;99.90
13148;DHT22;6639;50.956;4.242;2023-12-07T02:02:00;10.10;99.90
13148;DHT22;6639;50.956;4.242;2023-12-07T02:04:29;10.20;99.90
13148;DHT22;6639;50.956;4.242;2023-12-07T02:06:58;10.50;99.90
13148;DHT22;6639;50.956;4.242;2023-12-07T02:09:27;10.20;99.90
13148;DHT22;6639;50.956;4.242;2023-12-07T02:11:54;10.00;99.90
13148;DHT22;6639;50.956;4.242;2023-12-07T02:14:21;9.60;99.90
13148;DHT22;6639;50.956;4.242;2023-12-07T02:16:50;9.20;99.90
13148;DHT22;6639;50.956;4.242;2023-12-07T02:19:34;9.60;99.90
13148;DHT22;6639;50.956;4.242;2023-12-07T02:22:10;9.60;99.90
13148;DHT22;6639;50.956;4.242;2023-12-07T02:24:47;9.30;99.90
13148;DHT22;6639;50.956;4.242;2023-12-07T02:27:34;8.60;99.90
13148;DHT22;6639;50.956;4.242;2023-12-07T02:30:01;8.60;99.90
13148;DHT22;6639;50.956;4.242;2023-12-07T02:32:28;8.30;99.90
13148;DHT22;6639;50.956;4.242;2023-12-07T02:34:55;8.50;99.90
13148;DHT22;6639;50.956;4.242;2023-12-07T02:37:25;8.80;99.90
13148;DHT22;6639;50.956;4.242;2023-12-07T02:39:55;8.90;99.90
13148;DHT22;6639;50.956;4.242;2023-12-07T02:42:24;8.50;99.90
13148;DHT22;6639;50.956;4.242;2023-12-07T02:44:53;8.60;99.90
13148;DHT22;6639;50.956;4.242;2023-12-07T02:47:20;9.10;99.90
13148;DHT22;6639;50.956;4.242;2023-12-07T02:49:47;9.10;99.90
13148;DHT22;6639;50.956;4.242;2023-12-07T02:52:14;8.90;99.90
13148;DHT22;6639;50.956;4.242;2023-12-07T02:54:41;8.90;99.90
13148;DHT22;6639;50.956;4.242;2023-12-07T02:57:07;8.60;99.90
13148;DHT22;6639;50.956;4.242;2023-12-07T02:59:36;8.60;99.90
13148;DHT22;6639;50.956;4.242;2023-12-07T03:02:03;8.80;99.90
13148;DHT22;6639;50.956;4.242;2023-12-07T03:04:30;9.30;99.90
13148;DHT22;6639;50.956;4.242;2023-12-07T03:06:57;9.20;99.90
13148;DHT22;6639;50.956;4.242;2023-12-07T03:09:24;9.40;99.90
13148;DHT22;6639;50.956;4.242;2023-12-07T03:11:51;9.30;99.90
13148;DHT22;6639;50.956;4.242;2023-12-07T03:14:18;9.90;99.90
13148;DHT22;6639;50.956;4.242;2023-12-07T03:16:47;9.80;99.90
13148;DHT22;6639;50.956;4.242;2023-12-07T03:19:14;9.80;99.90
13148;DHT22;6639;50.956;4.242;2023-12-07T03:21:41;10.10;99.90
13148;DHT22;6639;50.956;4.242;2023-12-07T03:24:09;10.00;99.90
13148;DHT22;6639;50.956;4.242;2023-12-07T03:26:36;10.00;99.90
13148;DHT22;6639;50.956;4.242;2023-12-07T03:29:03;9.90;99.90
13148;DHT22;6639;50.956;4.242;2023-12-07T03:31:31;10.10;99.90
13148;DHT22;6639;50.956;4.242;2023-12-07T03:33:59;10.40;99.90
13148;DHT22;6639;50.956;4.242;2023-12-07T03:36:27;10.30;99.90
13148;DHT22;6639;50.956;4.242;2023-12-07T03:38:54;10.50;99.90
13148;DHT22;6639;50.956;4.242;2023-12-07T03:41:21;10.60;99.90
13148;DHT22;6639;50.956;4.242;2023-12-07T03:43:47;10.60;99.90
13148;DHT22;6639;50.956;4.242;2023-12-07T03:46:14;10.00;99.90
13148;DHT22;6639;50.956;4.242;2023-12-07T03:48:41;10.10;99.90
13148;DHT22;6639;50.956;4.242;2023-12-07T03:51:14;10.10;99.90
13148;DHT22;6639;50.956;4.242;2023-12-07T03:53:42;10.20;99.90
13148;DHT22;6639;50.956;4.242;2023-12-07T03:56:09;10.10;99.90
13148;DHT22;6639;50.956;4.242;2023-12-07T03:58:36;9.80;99.90
13148;DHT22;6639;50.956;4.242;2023-12-07T04:01:03;9.50;99.90
13148;DHT22;6639;50.956;4.242;2023-12-07T04:03:30;9.10;99.90
13148;DHT22;6639;50.956;4.242;2023-12-07T04:05:57;9.10;99.90
13148;DHT22;6639;50.956;4.242;2023-12-07T04:08:25;9.50;99.90
13148;DHT22;6639;50.956;4.242;2023-12-07T04:10:52;9.90;99.90
13148;DHT22;6639;50.956;4.242;2023-12-07T04:13:19;10.10;99.90
13148;DHT22;6639;50.956;4.242;2023-12-07T04:15:46;10.00;99.90
13148;DHT22;6639;50.956;4.242;2023-12-07T04:18:13;9.30;99.90
13148;DHT22;6639;50.956;4.242;2023-12-07T04:20:40;9.70;99.90
13148;DHT22;6639;50.956;4.242;2023-12-07T04:23:07;9.80;99.90
13148;DHT22;6639;50.956;4.242;2023-12-07T04:25:35;10.10;99.90
13148;DHT22;6639;50.956;4.242;2023-12-07T04:28:02;10.50;99.90
13148;DHT22;6639;50.956;4.242;2023-12-07T04:30:29;10.70;99.90
13148;DHT22;6639;50.956;4.242;2023-12-07T04:32:56;10.90;99.90
13148;DHT22;6639;50.956;4.242;2023-12-07T04:35:23;10.90;99.90
13148;DHT22;6639;50.956;4.242;2023-12-07T04:37:50;10.80;99.90
13148;DHT22;6639;50.956;4.242;2023-12-07T04:40:17;10.60;99.90
13148;DHT22;6639;50.956;4.242;2023-12-07T04:42:45;10.10;99.90
13148;DHT22;6639;50.956;4.242;2023-12-07T04:45:13;10.20;99.90
13148;DHT22;6639;50.956;4.242;2023-12-07T04:47:39;10.20;99.90
13148;DHT22;6639;50.956;4.242;2023-12-07T04:50:07;10.10;99.90
13148;DHT22;6639;50.956;4.242;2023-12-07T04:52:35;10.40;99.90
13148;DHT22;6639;50.956;4.242;2023-12-07T04:55:02;10.70;99.90
13148;DHT22;6639;50.956;4.242;2023-12-07T04:57:29;10.60;99.90
13148;DHT22;6639;50.956;4.242;2023-12-07T04:59:57;10.50;99.90
13148;DHT22;6639;50.956;4.242;2023-12-07T05:02:24;10.00;99.90
13148;DHT22;6639;50.956;4.242;2023-12-07T05:04:53;9.80;99.90
13148;DHT22;6639;50.956;4.242;2023-12-07T05:07:20;9.70;99.90
13148;DHT22;6639;50.956;4.242;2023-12-07T05:09:47;10.10;99.90
13148;DHT22;6639;50.956;4.242;2023-12-07T05:12:16;10.30;99.90
13148;DHT22;6639;50.956;4.242;2023-12-07T05:14:43;10.10;99.90
13148;DHT22;6639;50.956;4.242;2023-12-07T05:17:11;10.00;99.90
13148;DHT22;6639;50.956;4.242;2023-12-07T05:19:39;10.30;99.90
13148;DHT22;6639;50.956;4.242;2023-12-07T05:22:06;10.10;99.90
13148;DHT22;6639;50.956;4.242;2023-12-07T05:24:35;10.50;99.90
13148;DHT22;6639;50.956;4.242;2023-12-07T05:27:02;10.50;99.90
13148;DHT22;6639;50.956;4.242;2023-12-07T05:29:29;10.80;99.90
13148;DHT22;6639;50.956;4.242;2023-12-07T05:31:56;11.00;99.90
13148;DHT22;6639;50.956;4.242;2023-12-07T05:34:24;10.40;99.90
13148;DHT22;6639;50.956;4.242;2023-12-07T05:36:51;9.70;99.90
13148;DHT22;6639;50.956;4.242;2023-12-07T05:39:18;9.60;99.90
13148;DHT22;6639;50.956;4.242;2023-12-07T05:41:45;9.30;99.90
13148;DHT22;6639;50.956;4.242;2023-12-07T05:44:13;8.90;99.90
13148;DHT22;6639;50.956;4.242;2023-12-07T05:46:48;8.80;99.90
13148;DHT22;6639;50.956;4.242;2023-12-07T05:49:15;9.00;99.90
13148;DHT22;6639;50.956;4.242;2023-12-07T05:51:43;9.10;99.90
13148;DHT22;6639;50.956;4.242;2023-12-07T05:54:10;8.90;99.90
13148;DHT22;6639;50.956;4.242;2023-12-07T05:56:37;8.80;99.90
13148;DHT22;6639;50.956;4.242;2023-12-07T05:59:04;8.90;99.90
13148;DHT22;6639;50.956;4.242;2023-12-07T06:01:31;8.90;99.90
13148;DHT22;6639;50.956;4.242;2023-12-07T06:03:58;9.10;99.90
13148;DHT22;6639;50.956;4.242;2023-12-07T06:06:25;9.30;99.90
13148;DHT22;6639;50.956;4.242;2023-12-07T06:08:53;9.30;99.90
13148;DHT22;6639;50.956;4.242;2023-12-07T06:11:20;9.40;99.90
13148;DHT22;6639;50.956;4.242;2023-12-07T06:13:47;9.60;99.90
13148;DHT22;6639;50.956;4.242;2023-12-07T06:16:14;9.70;99.90
13148;DHT22;6639;50.956;4.242;2023-12-07T06:18:43;9.80;99.90
13148;DHT22;6639;50.956;4.242;2023-12-07T06:21:10;10.10;99.90
13148;DHT22;6639;50.956;4.242;2023-12-07T06:23:38;10.30;99.90
13148;DHT22;6639;50.956;4.242;2023-12-07T06:26:07;10.40;99.90
13148;DHT22;6639;50.956;4.242;2023-12-07T06:28:34;10.50;99.90
13148;DHT22;6639;50.956;4.242;2023-12-07T06:31:05;10.80;99.90
13148;DHT22;6639;50.956;4.242;2023-12-07T06:33:32;11.00;99.90
13148;DHT22;6639;50.956;4.242;2023-12-07T06:36:00;11.30;99.90
13148;DHT22;6639;50.956;4.242;2023-12-07T06:38:28;10.90;99.90
13148;DHT22;6639;50.956;4.242;2023-12-07T06:40:55;11.00;99.90
13148;DHT22;6639;50.956;4.242;2023-12-07T06:43:24;11.10;99.90
13148;DHT22;6639;50.956;4.242;2023-12-07T06:45:51;11.20;99.90
13148;DHT22;6639;50.956;4.242;2023-12-07T06:48:18;11.30;99.90
13148;DHT22;6639;50.956;4.242;2023-12-07T06:50:45;11.00;99.90
13148;DHT22;6639;50.956;4.242;2023-12-07T06:53:13;11.00;99.90
13148;DHT22;6639;50.956;4.242;2023-12-07T06:55:41;11.20;99.90
13148;DHT22;6639;50.956;4.242;2023-12-07T06:58:09;11.30;99.90
13148;DHT22;6639;50.956;4.242;2023-12-07T07:00:38;11.50;99.90
13148;DHT22;6639;50.956;4.242;2023-12-07T07:03:04;11.50;99.90
13148;DHT22;6639;50.956;4.242;2023-12-07T07:05:32;11.50;99.90
13148;DHT22;6639;50.956;4.242;2023-12-07T07:07:59;11.30;99.90
13148;DHT22;6639;50.956;4.242;2023-12-07T07:10:26;11.30;99.90
13148;DHT22;6639;50.956;4.242;2023-12-07T07:12:53;11.40;99.90
13148;DHT22;6639;50.956;4.242;2023-12-07T07:15:20;11.40;99.90
13148;DHT22;6639;50.956;4.242;2023-12-07T07:17:50;11.60;99.90
13148;DHT22;6639;50.956;4.242;2023-12-07T07:20:17;11.60;99.90
13148;DHT22;6639;50.956;4.242;2023-12-07T07:22:44;11.70;99.90
13148;DHT22;6639;50.956;4.242;2023-12-07T07:25:12;11.70;99.90
13148;DHT22;6639;50.956;4.242;2023-12-07T07:27:40;11.80;99.90
13148;DHT22;6639;50.956;4.242;2023-12-07T07:30:08;11.90;99.90
13148;DHT22;6639;50.956;4.242;2023-12-07T07:32:35;11.90;99.90
13148;DHT22;6639;50.956;4.242;2023-12-07T07:35:04;11.90;99.90
13148;DHT22;6639;50.956;4.242;2023-12-07T07:37:31;11.90;99.90
13148;DHT22;6639;50.956;4.242;2023-12-07T07:39:57;11.80;99.90
13148;DHT22;6639;50.956;4.242;2023-12-07T07:42:25;11.80;99.90
13148;DHT22;6639;50.956;4.242;2023-12-07T07:44:52;11.80;99.90
13148;DHT22;6639;50.956;4.242;2023-12-07T07:47:19;11.80;99.90
13148;DHT22;6639;50.956;4.242;2023-12-07T07:49:46;11.90;99.90
13148;DHT22;6639;50.956;4.242;2023-12-07T07:52:14;11.90;99.90
13148;DHT22;6639;50.956;4.242;2023-12-07T07:54:42;11.80;99.90
13148;DHT22;6639;50.956;4.242;2023-12-07T07:57:09;11.90;99.90
13148;DHT22;6639;50.956;4.242;2023-12-07T07:59:36;11.70;99.90
13148;DHT22;6639;50.956;4.242;2023-12-07T08:02:03;11.80;99.90
13148;DHT22;6639;50.956;4.242;2023-12-07T08:04:30;11.90;99.90
13148;DHT22;6639;50.956;4.242;2023-12-07T08:06:58;11.50;99.90
13148;DHT22;6639;50.956;4.242;2023-12-07T08:09:26;11.70;99.90
13148;DHT22;6639;50.956;4.242;2023-12-07T08:11:53;11.80;99.90
13148;DHT22;6639;50.956;4.242;2023-12-07T08:14:20;11.90;99.90
13148;DHT22;6639;50.956;4.242;2023-12-07T08:16:47;11.70;99.90
13148;DHT22;6639;50.956;4.242;2023-12-07T08:19:14;11.60;99.90
13148;DHT22;6639;50.956;4.242;2023-12-07T08:21:41;11.50;99.90
13148;DHT22;6639;50.956;4.242;2023-12-07T08:24:08;10.70;99.90
13148;DHT22;6639;50.956;4.242;2023-12-07T08:26:36;10.70;99.90
13148;DHT22;6639;50.956;4.242;2023-12-07T08:29:03;10.50;99.90
13148;DHT22;6639;50.956;4.242;2023-12-07T08:31:30;10.60;99.90
13148;DHT22;6639;50.956;4.242;2023-12-07T08:33:56;11.00;99.90
13148;DHT22;6639;50.956;4.242;2023-12-07T08:36:23;11.10;99.90
13148;DHT22;6639;50.956;4.242;2023-12-07T08:38:51;10.40;99.90
13148;DHT22;6639;50.956;4.242;2023-12-07T08:41:18;10.00;99.90
13148;DHT22;6639;50.956;4.242;2023-12-07T08:43:46;9.90;99.90
13148;DHT22;6639;50.956;4.242;2023-12-07T08:46:13;9.90;99.90
13148;DHT22;6639;50.956;4.242;2023-12-07T08:48:41;10.00;99.90
13148;DHT22;6639;50.956;4.242;2023-12-07T08:51:08;10.30;99.90
13148;DHT22;6639;50.956;4.242;2023-12-07T08:53:35;10.50;99.90
13148;DHT22;6639;50.956;4.242;2023-12-07T08:56:02;10.40;99.90
13148;DHT22;6639;50.956;4.242;2023-12-07T08:58:29;10.30;99.90
13148;DHT22;6639;50.956;4.242;2023-12-07T09:00:58;10.10;99.90
13148;DHT22;6639;50.956;4.242;2023-12-07T09:03:25;10.30;99.90
13148;DHT22;6639;50.956;4.242;2023-12-07T09:05:57;10.50;99.90
13148;DHT22;6639;50.956;4.242;2023-12-07T09:08:24;10.90;99.90
13148;DHT22;6639;50.956;4.242;2023-12-07T09:10:51;10.30;99.90
13148;DHT22;6639;50.956;4.242;2023-12-07T09:13:18;10.70;99.90
13148;DHT22;6639;50.956;4.242;2023-12-07T09:15:45;11.40;99.90
13148;DHT22;6639;50.956;4.242;2023-12-07T09:18:13;11.00;99.90
13148;DHT22;6639;50.956;4.242;2023-12-07T09:20:40;11.20;99.90
13148;DHT22;6639;50.956;4.242;2023-12-07T09:23:11;11.50;99.90
13148;DHT22;6639;50.956;4.242;2023-12-07T09:25:38;10.80;99.90
13148;DHT22;6639;50.956;4.242;2023-12-07T09:28:06;10.70;99.90
13148;DHT22;6639;50.956;4.242;2023-12-07T09:30:33;10.70;99.90
13148;DHT22;6639;50.956;4.242;2023-12-07T09:33:01;11.20;99.90
13148;DHT22;6639;50.956;4.242;2023-12-07T09:35:31;11.50;99.90
13148;DHT22;6639;50.956;4.242;2023-12-07T09:37:59;11.60;99.90
13148;DHT22;6639;50.956;4.242;2023-12-07T09:40:26;11.80;99.90
13148;DHT22;6639;50.956;4.242;2023-12-07T09:42:54;11.90;99.90
13148;DHT22;6639;50.956;4.242;2023-12-07T09:45:21;11.70;99.90
13148;DHT22;6639;50.956;4.242;2023-12-07T09:47:49;12.00;99.90
13148;DHT22;6639;50.956;4.242;2023-12-07T09:50:17;12.20;99.90
13148;DHT22;6639;50.956;4.242;2023-12-07T09:52:49;12.10;99.90
13148;DHT22;6639;50.956;4.242;2023-12-07T09:55:16;11.90;99.90
13148;DHT22;6639;50.956;4.242;2023-12-07T09:57:44;12.20;99.90
13148;DHT22;6639;50.956;4.242;2023-12-07T10:00:12;12.60;99.90
13148;DHT22;6639;50.956;4.242;2023-12-07T10:02:41;12.80;99.90
13148;DHT22;6639;50.956;4.242;2023-12-07T10:05:09;12.70;99.90
13148;DHT22;6639;50.956;4.242;2023-12-07T10:07:40;13.20;99.90
13148;DHT22;6639;50.956;4.242;2023-12-07T10:10:09;12.80;99.90
13148;DHT22;6639;50.956;4.242;2023-12-07T10:12:45;12.70;99.90
13148;DHT22;6639;50.956;4.242;2023-12-07T10:15:17;12.80;99.90
13148;DHT22;6639;50.956;4.242;2023-12-07T10:17:47;13.00;99.90
13148;DHT22;6639;50.956;4.242;2023-12-07T10:20:15;13.50;99.90
13148;DHT22;6639;50.956;4.242;2023-12-07T10:22:43;13.70;99.90
13148;DHT22;6639;50.956;4.242;2023-12-07T10:25:12;14.00;99.90
13148;DHT22;6639;50.956;4.242;2023-12-07T10:27:41;13.90;99.90
13148;DHT22;6639;50.956;4.242;2023-12-07T10:30:11;14.00;99.90
13148;DHT22;6639;50.956;4.242;2023-12-07T10:32:39;13.90;99.90
13148;DHT22;6639;50.956;4.242;2023-12-07T10:35:07;13.90;99.90
13148;DHT22;6639;50.956;4.242;2023-12-07T10:37:35;14.20;99.90
13148;DHT22;6639;50.956;4.242;2023-12-07T10:40:04;14.00;99.90
13148;DHT22;6639;50.956;4.242;2023-12-07T10:42:34;14.40;99.90
13148;DHT22;6639;50.956;4.242;2023-12-07T10:45:05;14.80;99.90
13148;DHT22;6639;50.956;4.242;2023-12-07T10:47:37;14.60;99.90
13148;DHT22;6639;50.956;4.242;2023-12-07T10:50:07;14.40;99.90
13148;DHT22;6639;50.956;4.242;2023-12-07T10:52:42;14.00;99.90
13148;DHT22;6639;50.956;4.242;2023-12-07T10:55:15;13.20;99.90
13148;DHT22;6639;50.956;4.242;2023-12-07T10:57:44;12.80;99.90
13148;DHT22;6639;50.956;4.242;2023-12-07T11:00:13;12.90;99.90
13148;DHT22;6639;50.956;4.242;2023-12-07T11:02:41;13.70;99.90
13148;DHT22;6639;50.956;4.242;2023-12-07T11:05:09;14.00;99.90
13148;DHT22;6639;50.956;4.242;2023-12-07T11:07:47;14.10;99.90
13148;DHT22;6639;50.956;4.242;2023-12-07T11:10:21;13.70;99.90
13148;DHT22;6639;50.956;4.242;2023-12-07T11:12:56;13.80;99.90
13148;DHT22;6639;50.956;4.242;2023-12-07T11:15:27;14.10;99.90
13148;DHT22;6639;50.956;4.242;2023-12-07T11:17:55;13.50;99.90
13148;DHT22;6639;50.956;4.242;2023-12-07T11:20:32;13.30;99.90
13148;DHT22;6639;50.956;4.242;2023-12-07T11:22:59;13.10;99.90
13148;DHT22;6639;50.956;4.242;2023-12-07T11:25:26;13.20;99.90
13148;DHT22;6639;50.956;4.242;2023-12-07T11:28:02;13.00;99.90
13148;DHT22;6639;50.956;4.242;2023-12-07T11:30:31;13.30;99.90
13148;DHT22;6639;50.956;4.242;2023-12-07T11:32:58;13.50;99.90
13148;DHT22;6639;50.956;4.242;2023-12-07T11:35:25;13.40;99.90
13148;DHT22;6639;50.956;4.242;2023-12-07T11:38:06;13.70;99.90
13148;DHT22;6639;50.956;4.242;2023-12-07T11:40:35;13.90;99.90
13148;DHT22;6639;50.956;4.242;2023-12-07T11:43:04;13.60;99.90
13148;DHT22;6639;50.956;4.242;2023-12-07T11:45:42;13.70;99.90
13148;DHT22;6639;50.956;4.242;2023-12-07T11:48:15;13.60;99.90
13148;DHT22;6639;50.956;4.242;2023-12-07T11:50:58;13.70;99.90
13148;DHT22;6639;50.956;4.242;2023-12-07T11:53:26;13.60;99.90
13148;DHT22;6639;50.956;4.242;2023-12-07T11:55:55;13.90;99.90
13148;DHT22;6639;50.956;4.242;2023-12-07T11:58:24;14.00;99.90
13148;DHT22;6639;50.956;4.242;2023-12-07T12:00:52;14.20;99.80
13148;DHT22;6639;50.956;4.242;2023-12-07T12:03:19;14.20;99.90
13148;DHT22;6639;50.956;4.242;2023-12-07T12:05:46;13.90;99.40
13148;DHT22;6639;50.956;4.242;2023-12-07T12:08:13;14.30;99.90
13148;DHT22;6639;50.956;4.242;2023-12-07T12:10:41;14.20;98.90
13148;DHT22;6639;50.956;4.242;2023-12-07T12:13:09;14.00;99.50
13148;DHT22;6639;50.956;4.242;2023-12-07T12:15:38;13.70;99.90
13148;DHT22;6639;50.956;4.242;2023-12-07T12:18:05;13.10;99.90
13148;DHT22;6639;50.956;4.242;2023-12-07T12:20:32;12.60;99.90
13148;DHT22;6639;50.956;4.242;2023-12-07T12:22:59;12.90;99.90
13148;DHT22;6639;50.956;4.242;2023-12-07T12:25:27;12.90;99.90
13148;DHT22;6639;50.956;4.242;2023-12-07T12:27:57;13.30;99.90
13148;DHT22;6639;50.956;4.242;2023-12-07T12:30:25;13.10;99.90
13148;DHT22;6639;50.956;4.242;2023-12-07T12:32:53;12.80;99.90
13148;DHT22;6639;50.956;4.242;2023-12-07T12:35:20;12.60;99.90
13148;DHT22;6639;50.956;4.242;2023-12-07T12:37:48;12.50;99.90
13148;DHT22;6639;50.956;4.242;2023-12-07T12:40:16;12.40;99.90
13148;DHT22;6639;50.956;4.242;2023-12-07T12:42:45;12.00;99.90
13148;DHT22;6639;50.956;4.242;2023-12-07T12:45:13;11.70;99.90
13148;DHT22;6639;50.956;4.242;2023-12-07T12:47:41;12.30;99.90
13148;DHT22;6639;50.956;4.242;2023-12-07T12:50:10;12.60;99.90
13148;DHT22;6639;50.956;4.242;2023-12-07T12:52:39;12.70;99.90
13148;DHT22;6639;50.956;4.242;2023-12-07T12:55:08;12.60;99.90
13148;DHT22;6639;50.956;4.242;2023-12-07T12:57:36;12.50;99.90
13148;DHT22;6639;50.956;4.242;2023-12-07T13:00:04;12.60;99.90
13148;DHT22;6639;50.956;4.242;2023-12-07T13:02:33;12.70;99.90
13148;DHT22;6639;50.956;4.242;2023-12-07T13:05:00;12.40;99.90
13148;DHT22;6639;50.956;4.242;2023-12-07T13:07:29;12.20;99.90
13148;DHT22;6639;50.956;4.242;2023-12-07T13:09:56;12.10;99.90
13148;DHT22;6639;50.956;4.242;2023-12-07T13:12:23;11.90;99.90
13148;DHT22;6639;50.956;4.242;2023-12-07T13:14:53;12.10;99.90
13148;DHT22;6639;50.956;4.242;2023-12-07T13:17:20;12.10;99.90
13148;DHT22;6639;50.956;4.242;2023-12-07T13:19:47;12.50;99.90
13148;DHT22;6639;50.956;4.242;2023-12-07T13:22:14;12.10;99.90
13148;DHT22;6639;50.956;4.242;2023-12-07T13:24:42;11.80;99.90
13148;DHT22;6639;50.956;4.242;2023-12-07T13:27:09;12.00;99.90
13148;DHT22;6639;50.956;4.242;2023-12-07T13:29:36;11.90;99.90
13148;DHT22;6639;50.956;4.242;2023-12-07T13:32:04;11.80;99.90
13148;DHT22;6639;50.956;4.242;2023-12-07T13:34:31;12.10;99.90
13148;DHT22;6639;50.956;4.242;2023-12-07T13:36:58;11.50;99.90
13148;DHT22;6639;50.956;4.242;2023-12-07T13:39:24;11.30;99.90
13148;DHT22;6639;50.956;4.242;2023-12-07T13:41:54;11.70;99.90
13148;DHT22;6639;50.956;4.242;2023-12-07T13:44:21;11.30;99.90
13148;DHT22;6639;50.956;4.242;2023-12-07T13:46:49;11.50;99.90
13148;DHT22;6639;50.956;4.242;2023-12-07T13:49:19;11.50;99.90
13148;DHT22;6639;50.956;4.242;2023-12-07T13:51:46;11.40;99.90
13148;DHT22;6639;50.956;4.242;2023-12-07T13:54:13;11.60;99.90
13148;DHT22;6639;50.956;4.242;2023-12-07T13:56:40;11.90;99.90
13148;DHT22;6639;50.956;4.242;2023-12-07T13:59:08;11.90;99.90
13148;DHT22;6639;50.956;4.242;2023-12-07T14:01:37;12.40;99.90
13148;DHT22;6639;50.956;4.242;2023-12-07T14:04:05;12.10;99.90
13148;DHT22;6639;50.956;4.242;2023-12-07T14:06:33;11.60;99.90
13148;DHT22;6639;50.956;4.242;2023-12-07T14:09:00;11.60;99.90
13148;DHT22;6639;50.956;4.242;2023-12-07T14:11:28;11.30;99.90
13148;DHT22;6639;50.956;4.242;2023-12-07T14:13:55;11.60;99.90
13148;DHT22;6639;50.956;4.242;2023-12-07T14:16:23;11.60;99.90
13148;DHT22;6639;50.956;4.242;2023-12-07T14:18:50;11.80;99.90
13148;DHT22;6639;50.956;4.242;2023-12-07T14:21:19;12.20;99.90
13148;DHT22;6639;50.956;4.242;2023-12-07T14:23:47;12.50;99.90
13148;DHT22;6639;50.956;4.242;2023-12-07T14:26:14;12.30;99.50
13148;DHT22;6639;50.956;4.242;2023-12-07T14:28:41;11.80;99.90
13148;DHT22;6639;50.956;4.242;2023-12-07T14:31:08;11.50;99.90
13148;DHT22;6639;50.956;4.242;2023-12-07T14:33:41;11.30;99.90
13148;DHT22;6639;50.956;4.242;2023-12-07T14:36:10;11.60;99.90
13148;DHT22;6639;50.956;4.242;2023-12-07T14:38:37;11.70;99.90
13148;DHT22;6639;50.956;4.242;2023-12-07T14:41:05;11.60;99.90
13148;DHT22;6639;50.956;4.242;2023-12-07T14:43:32;11.90;99.90
13148;DHT22;6639;50.956;4.242;2023-12-07T14:45:59;11.60;99.90
13148;DHT22;6639;50.956;4.242;2023-12-07T14:48:30;11.60;99.90
13148;DHT22;6639;50.956;4.242;2023-12-07T14:50:59;11.40;99.90
13148;DHT22;6639;50.956;4.242;2023-12-07T14:53:26;11.10;99.90
13148;DHT22;6639;50.956;4.242;2023-12-07T14:55:53;11.00;99.90
13148;DHT22;6639;50.956;4.242;2023-12-07T14:58:23;10.40;99.90
13148;DHT22;6639;50.956;4.242;2023-12-07T15:00:50;10.60;99.90
13148;DHT22;6639;50.956;4.242;2023-12-07T15:03:17;11.10;99.90
13148;DHT22;6639;50.956;4.242;2023-12-07T15:05:45;11.00;99.90
13148;DHT22;6639;50.956;4.242;2023-12-07T15:08:13;10.80;99.90
13148;DHT22;6639;50.956;4.242;2023-12-07T15:10:40;10.20;99.90
13148;DHT22;6639;50.956;4.242;2023-12-07T15:13:07;10.30;99.90
13148;DHT22;6639;50.956;4.242;2023-12-07T15:15:34;10.30;99.90
13148;DHT22;6639;50.956;4.242;2023-12-07T15:18:01;10.00;99.90
13148;DHT22;6639;50.956;4.242;2023-12-07T15:20:27;9.90;99.90
13148;DHT22;6639;50.956;4.242;2023-12-07T15:22:54;10.10;99.90
13148;DHT22;6639;50.956;4.242;2023-12-07T15:25:23;9.90;99.90
13148;DHT22;6639;50.956;4.242;2023-12-07T15:27:50;9.80;99.90
13148;DHT22;6639;50.956;4.242;2023-12-07T15:30:17;9.70;99.90
13148;DHT22;6639;50.956;4.242;2023-12-07T15:32:48;9.80;99.90
13148;DHT22;6639;50.956;4.242;2023-12-07T15:35:15;10.10;99.90
13148;DHT22;6639;50.956;4.242;2023-12-07T15:37:43;9.90;99.90
13148;DHT22;6639;50.956;4.242;2023-12-07T15:40:10;10.20;99.90
13148;DHT22;6639;50.956;4.242;2023-12-07T15:42:39;10.40;99.90
13148;DHT22;6639;50.956;4.242;2023-12-07T15:45:07;10.10;99.90
13148;DHT22;6639;50.956;4.242;2023-12-07T15:47:35;10.20;99.90
13148;DHT22;6639;50.956;4.242;2023-12-07T15:50:02;10.20;99.90
13148;DHT22;6639;50.956;4.242;2023-12-07T15:52:29;10.60;99.90
13148;DHT22;6639;50.956;4.242;2023-12-07T15:54:56;10.20;99.90